Time;durP1;ratioP1;P1;durP2;ratioP2;P2;SDS_P1;SDS_P2;PMS_P1;PMS_P2;Temp;Humidity;BMP_temperature;BMP_pressure;BME280_temperature;BME280_humidity;BME280_pressure;Samples;Min_cycle;Max_cycle;Signal;HPM_P1;HPM_P2
2021/05/17 00:00:46;;;;;;;7.90;3.67;;;;;;;-142.75;69.40;76377.38;5053368;28;20022;-79
2021/05/17 00:03:11;;;;;;;5.63;3.10;;;;;;;-142.75;69.10;76385.25;4983786;28;20030;-80
2021/05/17 00:05:37;;;;;;;4.47;2.72;;;;;;;-142.75;69.21;76397.06;5050291;28;20023;-82
2021/05/17 00:08:03;;;;;;;5.05;2.85;;;;;;;-142.75;68.87;76389.19;5050220;28;20487;-80
2021/05/17 00:10:29;;;;;;;5.13;2.73;;;;;;;-142.75;69.31;76420.69;5049727;28;20033;-82
2021/05/17 00:12:54;;;;;;;8.43;2.92;;;;;;;-142.75;69.18;76414.78;5045889;28;20024;-82
2021/05/17 00:15:23;;;;;;;7.28;3.13;;;;;;;-142.75;69.46;76416.75;5048389;28;20026;-81
2021/05/17 00:17:49;;;;;;;4.77;2.33;;;;;;;-142.75;68.98;76424.63;5053608;28;20113;-83
2021/05/17 00:20:16;;;;;;;3.55;2.38;;;;;;;-142.75;68.94;76424.63;5049778;28;20043;-84
2021/05/17 00:22:42;;;;;;;2.67;1.90;;;;;;;-142.75;68.97;76426.59;4978653;28;20038;-81
2021/05/17 00:25:07;;;;;;;;;;;;;;;-142.75;68.95;76440.38;4984782;28;20030;-79
2021/05/17 00:27:33;;;;;;;2.77;2.07;;;;;;;-142.75;69.16;76436.44;5050416;28;20263;-83
2021/05/17 00:29:58;;;;;;;5.07;1.98;;;;;;;-142.75;69.35;76452.19;5050967;28;20109;-83
2021/05/17 00:32:24;;;;;;;3.63;2.13;;;;;;;-142.75;69.23;76452.19;5052443;28;20034;-80
2021/05/17 00:34:50;;;;;;;6.07;2.67;;;;;;;-142.75;69.51;76438.41;5046211;28;20091;-83
2021/05/17 00:37:15;;;;;;;4.30;2.40;;;;;;;-142.75;69.44;76438.41;5050172;28;20042;-80
2021/05/17 00:39:41;;;;;;;5.15;2.20;;;;;;;-142.75;69.75;76428.56;5049684;28;20034;-83
2021/05/17 00:42:08;;;;;;;5.18;2.17;;;;;;;-142.75;69.49;76434.47;5047469;28;20157;-84
2021/05/17 00:44:38;;;;;;;4.43;2.30;;;;;;;-142.75;69.58;76430.53;5050197;28;20033;-82
2021/05/17 00:47:11;;;;;;;2.67;1.80;;;;;;;-142.75;69.82;76436.44;5050443;28;20062;-83
2021/05/17 00:49:36;;;;;;;5.37;2.77;;;;;;;-142.75;69.69;76424.63;5048887;28;20034;-85
2021/05/17 00:52:02;;;;;;;3.92;2.80;;;;;;;-142.75;69.73;76428.56;5044809;28;20027;-82
2021/05/17 00:54:27;;;;;;;5.97;2.95;;;;;;;-142.75;70.02;76428.56;5046191;28;20026;-82
2021/05/17 00:56:53;;;;;;;5.43;3.35;;;;;;;-142.75;69.81;76436.44;5047647;28;20030;-82
2021/05/17 00:59:18;;;;;;;5.65;3.25;;;;;;;-142.75;69.86;76430.53;5046390;28;20769;-82
2021/05/17 01:01:43;;;;;;;5.68;3.20;;;;;;;-142.75;69.91;76428.56;5044780;28;20037;-84
2021/05/17 01:04:09;;;;;;;6.88;3.92;;;;;;;-142.75;69.59;76426.59;4979069;28;20029;-81
2021/05/17 01:06:35;;;;;;;5.88;3.88;;;;;;;-142.75;69.77;76432.50;5047290;28;20019;-80
2021/05/17 01:09:06;;;;;;;6.57;4.07;;;;;;;-142.75;69.62;76436.44;5048031;28;20474;-83
2021/05/17 01:11:33;;;;;;;9.67;5.70;;;;;;;-142.75;69.62;76432.50;5046477;28;20530;-82
2021/05/17 01:14:02;;;;;;;8.33;5.50;;;;;;;-142.75;69.49;76428.56;5048235;28;20080;-81
2021/05/17 01:16:28;;;;;;;10.40;6.30;;;;;;;-142.75;69.41;76440.38;5051546;28;20023;-80
2021/05/17 01:18:54;;;;;;;13.63;5.40;;;;;;;-142.75;69.52;76440.38;5053712;28;20030;-81
2021/05/17 01:21:21;;;;;;;10.15;5.57;;;;;;;-142.75;69.57;76440.38;5049683;28;20085;-82
2021/05/17 01:23:57;;;;;;;10.80;6.23;;;;;;;-142.75;69.47;76444.31;5049440;28;20023;-81
2021/05/17 01:26:25;;;;;;;9.00;6.78;;;;;;;-142.75;69.62;76444.31;5048678;28;20030;-82
2021/05/17 01:28:55;;;;;;;16.57;6.50;;;;;;;-142.75;69.61;76452.19;5049037;28;20038;-79
2021/05/17 01:31:20;;;;;;;14.37;6.60;;;;;;;-142.75;69.72;76446.28;5048207;28;20050;-80
2021/05/17 01:33:46;;;;;;;14.15;6.85;;;;;;;-142.75;69.56;76452.19;5048935;28;20061;-81
2021/05/17 01:36:14;;;;;;;10.82;6.97;;;;;;;-142.75;69.67;76456.13;5048633;28;20027;-79
2021/05/17 01:38:46;;;;;;;10.10;6.67;;;;;;;-142.75;69.87;76446.28;5043432;28;20030;-82
2021/05/17 01:41:13;;;;;;;13.37;7.37;;;;;;;-142.75;69.76;76452.19;4984681;28;20033;-79
2021/05/17 01:43:51;;;;;;;9.13;6.37;;;;;;;-142.75;69.78;76452.19;5052103;28;20018;-80
2021/05/17 01:46:26;;;;;;;11.67;7.23;;;;;;;-142.75;69.90;76446.28;5046561;28;20380;-78
2021/05/17 01:48:54;;;;;;;13.23;8.40;;;;;;;-142.75;70.06;76448.25;5048232;28;20026;-80
2021/05/17 01:51:20;;;;;;;11.83;8.63;;;;;;;-142.75;70.12;76438.41;5051719;28;20444;-79
2021/05/17 01:53:47;;;;;;;;;;;;;;;-142.75;70.24;76434.47;5041067;28;20457;-80
2021/05/17 01:56:15;;;;;;;12.50;8.07;;;;;;;-142.75;70.32;76424.63;5049887;28;19917;-79
2021/05/17 01:58:41;;;;;;;15.38;8.23;;;;;;;-142.75;70.48;76424.63;4982132;28;20037;-81
2021/05/17 02:01:09;;;;;;;11.70;8.23;;;;;;;-142.75;70.40;76420.69;5045196;28;20408;-79
2021/05/17 02:03:40;;;;;;;11.83;8.60;;;;;;;-142.75;70.31;76401.00;5047559;28;20029;-81
2021/05/17 02:06:08;;;;;;;12.73;8.75;;;;;;;-142.75;70.08;76408.88;5048269;28;20026;-80
2021/05/17 02:08:41;;;;;;;15.03;8.67;;;;;;;-142.75;70.30;76404.94;5050915;28;20018;-81
2021/05/17 02:11:13;;;;;;;14.23;8.80;;;;;;;-142.75;70.09;76387.22;5049331;28;20045;-83
2021/05/17 02:13:39;;;;;;;17.48;9.15;;;;;;;-142.75;69.94;76389.19;5043149;28;20110;-81
2021/05/17 02:16:05;;;;;;;12.65;8.60;;;;;;;-142.75;70.03;76385.25;4986403;28;20022;-81
2021/05/17 02:18:31;;;;;;;15.27;9.43;;;;;;;-142.75;69.85;76375.41;5049925;28;20610;-80
2021/05/17 02:20:57;;;;;;;13.80;9.05;;;;;;;-142.75;69.84;76379.34;4983960;28;20039;-80
2021/05/17 02:23:22;;;;;;;12.55;9.15;;;;;;;-142.75;70.00;76377.38;4982524;28;20026;-79
2021/05/17 02:25:50;;;;;;;14.13;10.48;;;;;;;-142.75;70.13;76369.50;5049782;28;20034;-81
2021/05/17 02:28:17;;;;;;;12.43;9.03;;;;;;;-142.75;69.84;76365.56;5048642;28;20076;-79
2021/05/17 02:30:43;;;;;;;15.90;8.67;;;;;;;-142.75;69.82;76369.50;4982685;28;20030;-79
2021/05/17 02:33:09;;;;;;;11.65;9.13;;;;;;;-142.75;69.73;76365.56;5050216;28;20121;-80
2021/05/17 02:35:36;;;;;;;14.23;9.10;;;;;;;-142.75;69.59;76359.66;5045724;28;20037;-80
2021/05/17 02:38:02;;;;;;;12.27;9.77;;;;;;;-142.75;69.78;76367.53;5050139;28;20057;-80
2021/05/17 02:40:28;;;;;;;;;;;;;;;-142.75;69.98;76369.50;5046524;28;20508;-79
2021/05/17 02:43:03;;;;;;;17.33;9.03;;;;;;;-142.75;69.98;76373.44;5051249;28;19922;-80
2021/05/17 02:45:30;;;;;;;12.60;8.70;;;;;;;-142.75;69.96;76377.38;5051395;28;20023;-81
2021/05/17 02:48:00;;;;;;;12.38;8.48;;;;;;;-142.75;70.03;76377.38;4985200;28;20122;-78
2021/05/17 02:50:37;;;;;;;16.60;9.13;;;;;;;-142.75;69.93;76373.44;5050737;28;20130;-81
2021/05/17 02:53:27;;;;;;;12.52;7.75;;;;;;;-142.75;70.15;76385.25;5045658;28;20033;-84
2021/05/17 02:55:58;;;;;;;14.25;8.75;;;;;;;-142.75;70.04;76385.25;5048284;28;20077;-82
2021/05/17 02:58:27;;;;;;;13.70;8.95;;;;;;;-142.75;70.03;76385.25;5050531;28;20479;-79
2021/05/17 03:01:08;;;;;;;13.70;8.15;;;;;;;-142.75;69.99;76381.31;5046934;28;20042;-81
2021/05/17 03:03:38;;;;;;;14.57;9.50;;;;;;;-142.75;69.70;76367.53;4978675;28;20027;-81
2021/05/17 03:06:07;;;;;;;14.63;8.37;;;;;;;-142.75;69.93;76367.53;5044077;28;20034;-84
2021/05/17 03:08:58;;;;;;;14.90;9.07;;;;;;;-142.75;69.73;76367.53;5047976;28;20113;-81
2021/05/17 03:11:25;;;;;;;15.15;9.52;;;;;;;-142.75;69.95;76369.50;5047421;28;20031;-77
2021/05/17 03:13:51;;;;;;;16.37;9.43;;;;;;;-142.75;69.65;76357.69;5053824;28;20023;-81
2021/05/17 03:16:20;;;;;;;12.67;8.70;;;;;;;-142.75;69.91;76353.78;5047188;28;20105;-77
2021/05/17 03:18:46;;;;;;;15.52;8.95;;;;;;;-142.75;69.88;76353.78;5048951;28;20113;-77
2021/05/17 03:21:12;;;;;;;15.93;8.63;;;;;;;-142.75;69.87;76353.78;4977776;28;20023;-78
2021/05/17 03:23:38;;;;;;;;;;;;;;;-142.75;69.81;76343.94;5064652;22;20042;-81
2021/05/17 03:26:04;;;;;;;14.70;8.13;;;;;;;-142.75;69.70;76341.97;5083327;28;19939;-80
2021/05/17 03:28:29;;;;;;;14.23;8.65;;;;;;;-142.75;69.73;76343.94;4998742;28;20529;-80
2021/05/17 03:30:54;;;;;;;14.57;8.47;;;;;;;-142.75;69.74;76341.97;4993150;28;20061;-78
2021/05/17 03:33:20;;;;;;;13.48;9.52;;;;;;;-142.75;69.78;76345.91;4999421;28;20684;-78
2021/05/17 03:35:45;;;;;;;15.15;8.57;;;;;;;-142.75;69.93;76359.66;4977076;28;20023;-81
2021/05/17 03:38:10;;;;;;;14.80;9.93;;;;;;;-142.75;70.02;76353.78;4979610;28;20035;-80
2021/05/17 03:40:35;;;;;;;15.43;9.52;;;;;;;-142.75;70.10;76357.69;4981932;28;20050;-80
2021/05/17 03:43:01;;;;;;;16.25;10.48;;;;;;;-142.75;70.38;76349.81;4976828;28;20101;-80
2021/05/17 03:45:26;;;;;;;14.75;9.98;;;;;;;-142.75;70.50;76347.84;4964927;28;20023;-79
2021/05/17 03:47:52;;;;;;;17.17;11.63;;;;;;;-142.75;70.43;76345.91;4985049;28;20031;-79
2021/05/17 03:50:17;;;;;;;20.05;12.35;;;;;;;-142.75;70.58;76343.94;4967467;28;20023;-81
2021/05/17 03:52:43;;;;;;;15.00;11.38;;;;;;;-142.75;70.49;76349.81;4959386;28;20022;-80
2021/05/17 03:55:09;;;;;;;18.90;12.88;;;;;;;-142.75;70.52;76351.81;4962337;28;20033;-82
2021/05/17 03:57:35;;;;;;;;;;;;;;;-142.75;70.62;76345.91;4980698;28;20027;-80
2021/05/17 04:00:00;;;;;;;19.33;12.87;;;;;;;-142.75;70.56;76345.91;4985286;28;19920;-80
2021/05/17 04:02:25;;;;;;;20.58;12.88;;;;;;;-142.75;70.40;76341.97;4967984;28;20144;-80
2021/05/17 04:07:48;;;;;;;19.15;11.90;;;;;;;-142.75;70.09;76332.13;4983237;28;20050;-82
2021/05/17 04:15:20;;;;;;;17.37;11.43;;;;;;;-142.75;69.51;76314.41;4975507;28;20039;-81
2021/05/17 04:17:46;;;;;;;14.95;11.10;;;;;;;-142.75;69.91;76324.25;4977506;28;20278;-80
2021/05/17 04:20:11;;;;;;;14.55;10.88;;;;;;;-142.75;69.84;76322.28;4990466;28;20029;-81
2021/05/17 04:22:37;;;;;;;13.40;11.10;;;;;;;-142.75;70.03;76318.34;4982599;28;20461;-82
2021/05/17 04:25:03;;;;;;;13.07;10.27;;;;;;;-142.75;70.09;76322.28;4960935;28;20022;-81
2021/05/17 04:27:28;;;;;;;15.13;9.68;;;;;;;-142.75;70.02;76308.50;4981679;28;20113;-83
2021/05/17 04:29:53;;;;;;;15.57;9.73;;;;;;;-142.75;70.03;76298.66;4993741;28;20061;-81
2021/05/17 04:32:19;;;;;;;10.95;8.35;;;;;;;-142.75;69.72;76298.66;4971970;28;20037;-79
2021/05/17 04:34:44;;;;;;;14.93;8.13;;;;;;;-142.75;69.70;76298.66;4970786;28;20042;-80
2021/05/17 04:37:09;;;;;;;13.07;8.48;;;;;;;-142.75;69.50;76290.78;4975346;28;20118;-80
2021/05/17 04:39:35;;;;;;;11.40;7.18;;;;;;;-142.75;69.50;76280.94;4962362;28;20022;-79
2021/05/17 04:42:00;;;;;;;10.88;7.75;;;;;;;-142.75;69.56;76271.09;4957238;28;20479;-82
2021/05/17 04:44:26;;;;;;;10.85;7.53;;;;;;;-142.75;69.78;76265.19;4979017;28;20451;-79
2021/05/17 04:46:52;;;;;;;11.35;7.47;;;;;;;-142.75;69.86;76255.34;4976127;28;20046;-80
2021/05/17 04:49:18;;;;;;;10.68;8.05;;;;;;;-142.75;69.41;76259.28;4974162;28;20057;-80
2021/05/17 04:51:43;;;;;;;15.05;8.88;;;;;;;-142.75;69.49;76251.41;4981616;28;20041;-81
2021/05/17 04:54:08;;;;;;;16.38;9.13;;;;;;;-142.75;69.74;76251.41;4982324;28;20361;-77
2021/05/17 04:56:34;;;;;;;11.18;7.85;;;;;;;-142.75;69.50;76247.47;4981658;28;20045;-81
2021/05/17 04:58:59;;;;;;;13.23;7.80;;;;;;;-142.75;69.72;76251.41;4991050;28;20106;-78
2021/05/17 05:01:24;;;;;;;12.00;8.15;;;;;;;-142.75;69.77;76253.38;4986120;28;20026;-78
2021/05/17 05:03:49;;;;;;;14.70;8.93;;;;;;;-142.75;69.66;76255.34;4982607;28;20034;-79
2021/05/17 05:06:15;;;;;;;18.00;8.45;;;;;;;-142.75;69.72;76251.41;4983903;28;20105;-80
2021/05/17 05:08:40;;;;;;;13.73;9.30;;;;;;;-142.75;69.71;76255.34;4965494;28;20022;-81
2021/05/17 05:11:05;;;;;;;16.90;8.75;;;;;;;-142.75;69.72;76269.13;4966482;28;20085;-77
2021/05/17 05:13:30;;;;;;;15.67;9.27;;;;;;;-142.75;69.74;76271.09;4983347;28;20027;-80
2021/05/17 05:15:56;;;;;;;13.90;9.13;;;;;;;-142.75;69.47;76286.84;4964744;28;20293;-79
2021/05/17 05:18:21;;;;;;;16.95;9.40;;;;;;;-142.75;69.94;76296.69;4981940;28;20357;-82
2021/05/17 05:20:47;;;;;;;16.63;9.38;;;;;;;-142.75;70.36;76308.50;4988228;28;20397;-81
2021/05/17 05:23:15;;;;;;;19.02;9.13;;;;;;;-142.75;70.18;76314.41;4985605;28;20041;-80
2021/05/17 05:28:53;;;;;;;13.93;8.48;;;;;;;-142.75;70.32;76318.34;4987988;28;20109;-79
2021/05/17 05:31:37;;;;;;;19.37;9.27;;;;;;;-142.75;70.57;76314.41;4980825;28;20022;-79
2021/05/17 05:34:02;;;;;;;13.77;8.25;;;;;;;-142.75;70.61;76308.50;4964327;28;20094;-83
2021/05/17 05:36:28;;;;;;;13.77;7.00;;;;;;;-142.75;70.08;76314.41;4964426;28;20083;-77
2021/05/17 05:38:53;;;;;;;17.08;8.75;;;;;;;-142.75;70.37;76310.47;4982705;28;20109;-80
2021/05/17 05:41:18;;;;;;;12.57;7.97;;;;;;;-142.75;70.66;76310.47;4969752;28;20115;-79
2021/05/17 05:43:44;;;;;;;15.27;8.25;;;;;;;-142.75;70.89;76316.38;4983332;28;20061;-81
2021/05/17 05:46:09;;;;;;;14.55;7.70;;;;;;;-142.75;70.88;76326.22;4963737;28;20019;-81
2021/05/17 05:48:47;;;;;;;20.30;8.48;;;;;;;-142.75;70.97;76330.16;4983930;28;20027;-78
2021/05/17 05:51:17;;;;;;;17.52;7.32;;;;;;;-142.75;71.09;76320.31;4987835;28;20033;-78
2021/05/17 05:53:42;;;;;;;17.10;7.45;;;;;;;-142.75;71.03;76306.53;4966312;28;20019;-79
2021/05/17 05:56:08;;;;;;;13.48;7.80;;;;;;;-142.75;70.94;76308.50;4982646;28;20033;-80
2021/05/17 05:58:33;;;;;;;17.83;7.90;;;;;;;-142.75;70.73;76302.59;4967325;28;20126;-80
2021/05/17 06:00:58;;;;;;;14.05;7.30;;;;;;;-142.75;70.30;76312.44;4962507;28;20106;-80
2021/05/17 06:03:24;;;;;;;17.35;7.55;;;;;;;-142.75;70.40;76302.59;4965588;28;20030;-79
2021/05/17 06:05:49;;;;;;;20.45;7.72;;;;;;;-142.75;70.52;76298.66;4983507;28;20027;-80
2021/05/17 06:08:14;;;;;;;13.18;6.97;;;;;;;-142.75;70.59;76296.69;4973140;28;20027;-80
2021/05/17 06:10:40;;;;;;;12.93;6.30;;;;;;;-142.75;70.12;76302.59;4972094;28;20023;-79
2021/05/17 06:13:05;;;;;;;16.92;6.97;;;;;;;-142.75;70.25;76300.63;4965664;28;20034;-77
2021/05/17 06:15:31;;;;;;;13.32;7.55;;;;;;;-142.75;70.23;76302.59;4962820;28;20022;-78
2021/05/17 06:17:56;;;;;;;13.73;7.28;;;;;;;-142.75;70.34;76298.66;4979668;28;20476;-79
2021/05/17 06:20:22;;;;;;;14.38;7.10;;;;;;;-142.75;70.38;76300.63;4973207;28;20026;-80
2021/05/17 06:22:50;;;;;;;11.43;6.90;;;;;;;-142.75;69.96;76308.50;4970931;28;20479;-79
2021/05/17 06:25:16;;;;;;;19.27;7.18;;;;;;;-142.75;70.17;76302.59;4971613;28;20090;-81
2021/05/17 06:27:42;;;;;;;;;;;;;;;-142.75;69.97;76300.63;4983961;28;20395;-79
2021/05/17 06:30:10;;;;;;;17.88;6.72;;;;;;;-142.75;69.84;76290.78;4969367;28;19943;-78
2021/05/17 06:32:37;;;;;;;10.05;6.18;;;;;;;-142.75;69.51;76294.72;4985581;28;20022;-79
2021/05/17 06:35:05;;;;;;;14.20;6.13;;;;;;;-142.75;69.60;76294.72;4977359;28;20023;-78
2021/05/17 06:37:31;;;;;;;13.63;6.63;;;;;;;-142.75;69.88;76298.66;4980396;28;20015;-79
2021/05/17 06:39:56;;;;;;;12.70;6.20;;;;;;;-142.75;69.79;76304.56;4979460;28;20061;-80
2021/05/17 06:42:22;;;;;;;11.77;6.25;;;;;;;-142.75;69.86;76302.59;4977174;28;20038;-80
2021/05/17 06:44:47;;;;;;;13.05;6.60;;;;;;;-142.75;69.93;76300.63;4962106;28;20027;-78
2021/05/17 06:47:12;;;;;;;8.63;5.75;;;;;;;-142.75;69.67;76308.50;4964487;28;20065;-79
2021/05/17 06:49:39;;;;;;;15.60;6.82;;;;;;;-142.75;70.01;76300.63;4967516;28;20121;-78
2021/05/17 06:52:06;;;;;;;12.18;6.18;;;;;;;-142.75;70.03;76300.63;4965875;28;20030;-78
2021/05/17 06:54:32;;;;;;;8.95;6.18;;;;;;;-142.75;69.85;76294.72;4982118;28;20488;-78
2021/05/17 06:57:09;;;;;;;17.13;6.68;;;;;;;-142.75;69.90;76294.72;4964184;28;20476;-78
2021/05/17 06:59:48;;;;;;;11.15;6.63;;;;;;;-142.75;69.72;76294.72;4980749;28;20026;-78
2021/05/17 07:02:19;;;;;;;12.55;6.25;;;;;;;-142.75;69.79;76284.88;4979954;28;20031;-77
2021/05/17 07:04:45;;;;;;;11.88;6.43;;;;;;;-142.75;69.90;76280.94;4983953;28;20062;-77
2021/05/17 07:07:10;;;;;;;10.98;5.78;;;;;;;-142.75;69.48;76259.28;4980692;28;20091;-77
2021/05/17 07:12:20;;;;;;;11.82;6.45;;;;;;;-142.75;69.12;76200.25;4987149;28;20120;-78
2021/05/17 07:14:45;;;;;;;11.60;6.93;;;;;;;-142.75;68.87;76125.44;4982178;28;20048;-78
2021/05/17 07:17:10;;;;;;;10.93;5.97;;;;;;;-142.75;67.63;76066.41;4957652;28;20026;-77
2021/05/17 07:19:36;;;;;;;8.93;6.15;;;;;;;-142.75;66.85;75987.66;4979475;28;20034;-77
2021/05/17 07:24:45;;;;;;;11.77;5.28;;;;;;;-142.75;63.89;75948.31;4976778;28;20407;-78
2021/05/17 07:27:10;;;;;;;7.30;3.83;;;;;;;-142.75;62.12;75936.50;4976335;28;20030;-78
2021/05/17 07:29:37;;;;;;;;;;;;;;;-142.75;61.88;75954.22;4981111;28;20069;-77
2021/05/17 07:32:06;;;;;;;7.63;4.23;;;;;;;-142.75;62.52;75956.19;4982567;28;19914;-77
2021/05/17 07:34:35;;;;;;;8.73;4.45;;;;;;;-142.75;62.75;75967.97;5035923;28;20354;-77
2021/05/17 07:37:00;;;;;;;6.88;3.85;;;;;;;-142.75;62.40;75991.59;4978901;28;20027;-77
2021/05/17 07:39:25;;;;;;;11.07;3.90;;;;;;;-142.75;64.01;76001.44;4977905;28;20097;-77
2021/05/17 07:41:51;;;;;;;10.00;4.50;;;;;;;-142.75;63.77;75973.88;4977588;28;20026;-77
2021/05/17 07:44:16;;;;;;;12.73;5.10;;;;;;;-142.75;63.79;75979.78;4975961;28;20033;-76
2021/05/17 07:46:41;;;;;;;8.82;4.30;;;;;;;-142.75;63.02;75997.50;4958794;28;20062;-78
2021/05/17 07:49:12;;;;;;;7.78;3.92;;;;;;;-142.75;62.77;75950.28;4978333;28;20034;-78
2021/05/17 07:51:41;;;;;;;6.45;4.55;;;;;;;-142.75;62.94;75871.53;4980931;28;20058;-79
2021/05/17 07:54:06;;;;;;;8.90;4.57;;;;;;;-142.75;60.59;75790.84;4991046;28;20024;-78
2021/05/17 07:56:32;;;;;;;8.85;3.85;;;;;;;-142.75;58.95;75775.09;4983919;28;20109;-79
2021/05/17 07:58:58;;;;;;;;;;;;;;;-142.75;60.28;75790.84;4982916;28;20059;-78
2021/05/17 08:01:23;;;;;;;5.57;4.00;;;;;;;-142.75;60.01;75845.97;4983944;28;20399;-77
2021/05/17 08:03:49;;;;;;;;;;;;;;;-142.75;60.56;75891.22;4966112;28;20030;-77
2021/05/17 08:06:16;;;;;;;7.93;4.35;;;;;;;-142.75;61.47;75905.00;4983534;28;19967;-78
2021/05/17 08:08:41;;;;;;;8.13;4.65;;;;;;;-142.75;60.90;75893.19;4964830;28;20407;-77
2021/05/17 08:11:06;;;;;;;9.63;5.03;;;;;;;-142.75;60.43;75851.88;4979328;28;20026;-77
2021/05/17 08:13:32;;;;;;;;;;;;;;;-142.75;60.10;75822.34;4991402;28;20030;-77
2021/05/17 08:15:57;;;;;;;7.47;5.15;;;;;;;-142.75;59.85;75826.28;4972556;28;19914;-78
2021/05/17 08:18:22;;;;;;;;;;;;;;;-142.75;59.08;75857.78;4979783;28;20027;-79
2021/05/17 08:20:48;;;;;;;9.52;5.53;;;;;;;-142.75;59.78;75869.56;4963100;28;19922;-78
2021/05/17 08:23:16;;;;;;;;;;;;;;;-142.75;59.54;75873.50;4985104;28;20406;-79
2021/05/17 08:25:42;;;;;;;10.43;5.93;;;;;;;-142.75;60.00;75857.78;4992772;28;19914;-80
2021/05/17 08:28:07;;;;;;;10.68;5.75;;;;;;;-142.75;60.34;75855.81;4986838;28;20027;-79
2021/05/17 08:30:41;;;;;;;11.15;5.43;;;;;;;-142.75;59.01;75830.22;4956658;28;20475;-78
2021/05/17 08:33:06;;;;;;;8.75;5.85;;;;;;;-142.75;59.32;75786.91;4975005;28;20034;-79
2021/05/17 08:35:31;;;;;;;8.10;5.32;;;;;;;-142.75;59.85;75629.47;4992367;28;20076;-79
2021/05/17 08:37:57;;;;;;;;;;;;;;;-142.75;54.63;75475.97;4993955;28;20034;-79
2021/05/17 08:40:26;;;;;;;3.75;2.40;;;;;;;-142.75;51.05;75479.91;4976213;28;19918;-77
2021/05/17 08:42:53;;;;;;;6.97;3.30;;;;;;;-142.75;53.56;75538.94;4993294;28;20038;-78
2021/05/17 08:45:19;;;;;;;8.68;2.95;;;;;;;-142.75;54.19;75568.47;4957381;28;20042;-78
2021/05/17 08:47:45;;;;;;;5.15;2.85;;;;;;;-142.75;54.22;75599.94;4957825;28;20066;-77
2021/05/17 08:50:10;;;;;;;;;;;;;;;-142.75;54.97;75627.50;4957036;28;20061;-78
2021/05/17 08:52:38;;;;;;;6.25;3.15;;;;;;;-142.75;54.88;75629.47;4972466;28;19914;-79
2021/05/17 08:55:08;;;;;;;6.88;2.90;;;;;;;-142.75;54.19;75668.84;4973365;28;20088;-79
2021/05/17 08:57:33;;;;;;;5.63;2.90;;;;;;;-142.75;54.95;75680.63;4972497;28;20030;-78
2021/05/17 08:59:59;;;;;;;;;;;;;;;-142.75;55.29;75700.31;4957362;28;20030;-78
2021/05/17 09:02:27;;;;;;;7.15;3.00;;;;;;;-142.75;55.70;75747.56;4972419;28;20755;-78
2021/05/17 09:05:16;;;;;;;8.15;3.42;;;;;;;-142.75;56.94;75790.84;4971655;28;20672;-79
2021/05/17 09:07:50;;;;;;;7.57;3.00;;;;;;;-142.75;57.46;75806.59;4971643;28;20027;-78
2021/05/17 09:10:17;;;;;;;6.00;2.67;;;;;;;-142.75;57.44;75844.00;4972688;28;20026;-78
2021/05/17 09:12:58;;;;;;;6.05;2.45;;;;;;;-142.75;57.22;75861.69;4954728;28;20035;-78
2021/05/17 09:15:30;;;;;;;8.10;2.88;;;;;;;-142.75;57.72;75863.66;4989660;28;20033;-78
2021/05/17 09:18:00;;;;;;;5.97;2.70;;;;;;;-142.75;58.45;75873.50;4973688;28;20519;-78
2021/05/17 09:20:34;;;;;;;5.95;3.17;;;;;;;-142.75;59.35;75920.75;4991320;28;20692;-78
2021/05/17 09:23:27;;;;;;;4.80;2.85;;;;;;;-142.75;60.75;75979.78;4973736;28;20030;-77
2021/05/17 09:26:10;;;;;;;6.50;3.50;;;;;;;-142.75;62.04;76007.34;4971577;28;20479;-79
2021/05/17 09:28:51;;;;;;;7.18;3.33;;;;;;;-142.75;62.74;76030.97;4975492;28;20035;-77
2021/05/17 09:31:21;;;;;;;4.85;2.60;;;;;;;-142.75;61.99;76044.75;4984820;28;20037;-77
2021/05/17 09:33:48;;;;;;;4.93;2.65;;;;;;;-142.75;62.91;76062.47;4979495;28;20528;-78
2021/05/17 09:36:25;;;;;;;2.97;1.60;;;;;;;-142.75;61.62;76088.03;4983307;28;20095;-78
2021/05/17 09:39:01;;;;;;;2.90;1.90;;;;;;;-142.75;63.17;76091.97;4989182;28;20051;-79
2021/05/17 09:41:56;;;;;;;4.38;2.35;;;;;;;-142.75;62.58;76095.91;4988178;28;20034;-78
2021/05/17 09:44:24;;;;;;;4.78;2.70;;;;;;;-142.75;63.29;76097.88;4980604;28;20596;-80
2021/05/17 09:47:06;;;;;;;5.70;2.63;;;;;;;-142.75;62.98;76090.00;4963725;28;20031;-76
2021/05/17 09:49:35;;;;;;;4.18;2.47;;;;;;;-142.75;63.23;76090.00;4966251;28;20071;-78
2021/05/17 09:52:24;;;;;;;6.80;2.83;;;;;;;-142.75;63.85;76060.50;4977160;28;20067;-77
2021/05/17 09:55:10;;;;;;;4.80;3.13;;;;;;;-142.75;63.14;76030.97;4957874;28;20087;-78
2021/05/17 09:57:39;;;;;;;4.18;3.20;;;;;;;-142.75;62.02;76013.25;4971074;28;20023;-79
2021/05/17 10:00:08;;;;;;;5.13;3.65;;;;;;;-142.75;61.85;75981.75;4971505;28;20063;-82
2021/05/17 10:02:41;;;;;;;6.43;3.60;;;;;;;-142.75;62.93;75940.44;4971795;28;20019;-79
2021/05/17 10:05:13;;;;;;;5.32;3.50;;;;;;;-142.75;60.44;75881.38;4981595;28;20039;-81
2021/05/17 10:07:39;;;;;;;7.82;3.50;;;;;;;-142.75;58.66;75822.34;4987407;28;20026;-79
2021/05/17 10:10:06;;;;;;;4.82;4.20;;;;;;;-142.75;60.10;75767.22;4966805;28;20026;-79
2021/05/17 10:12:32;;;;;;;6.93;3.83;;;;;;;-142.75;58.10;75708.19;4982718;28;20026;-81
2021/05/17 10:14:57;;;;;;;5.97;3.03;;;;;;;-142.75;55.79;75645.22;4969195;28;20074;-78
2021/05/17 10:17:23;;;;;;;;;;;;;;;-142.75;56.82;75576.34;4986507;28;20034;-77
2021/05/17 10:19:49;;;;;;;10.13;3.45;;;;;;;-142.75;54.11;75548.78;4986111;28;19918;-78
2021/05/17 10:22:16;;;;;;;6.63;3.60;;;;;;;-142.75;54.92;75594.06;4980312;28;20381;-78
2021/05/17 10:24:41;;;;;;;5.03;3.42;;;;;;;-142.75;56.19;75641.28;4968783;28;20050;-78
2021/05/17 10:27:06;;;;;;;;;;;;;;;-142.75;54.97;75731.81;4966726;28;20480;-80
2021/05/17 10:29:37;;;;;;;7.75;4.00;;;;;;;-142.75;57.22;75808.56;4979905;28;19968;-80
2021/05/17 10:32:04;;;;;;;6.30;4.15;;;;;;;-142.75;59.59;75905.00;4985828;28;20096;-82
2021/05/17 10:34:29;;;;;;;4.82;3.08;;;;;;;-142.75;60.20;75987.66;4987317;28;20026;-83
2021/05/17 10:37:00;;;;;;;6.38;1.70;;;;;;;-142.75;59.88;76042.78;4957738;28;20035;-80
2021/05/17 10:39:40;;;;;;;8.23;1.70;;;;;;;-142.75;60.72;76113.63;4967495;28;20026;-82
2021/05/17 10:42:23;;;;;;;2.97;1.30;;;;;;;-142.75;61.12;76149.06;4983533;28;20103;-80
2021/05/17 10:47:42;;;;;;;6.65;1.88;;;;;;;-142.75;63.79;76219.91;4982145;28;20034;-80
2021/05/17 10:50:11;;;;;;;;;;;;;;;-142.75;64.60;76229.75;4969744;28;20567;-78
2021/05/17 10:52:37;;;;;;;7.50;2.35;;;;;;;-142.75;64.78;76225.81;4981096;28;19967;-79
2021/05/17 10:55:08;;;;;;;6.20;2.40;;;;;;;-142.75;65.23;76206.13;4986221;28;20030;-79
2021/05/17 10:57:40;;;;;;;6.45;2.78;;;;;;;-142.75;64.49;76198.28;4976704;28;20421;-80
2021/05/17 11:00:27;;;;;;;7.30;3.08;;;;;;;-142.75;64.36;76196.31;4979448;28;20114;-81
2021/05/17 11:03:12;;;;;;;6.93;3.33;;;;;;;-142.75;64.88;76190.41;4963437;28;20038;-77
2021/05/17 11:05:40;;;;;;;6.13;3.70;;;;;;;-142.75;65.26;76180.56;4979065;28;20034;-80
2021/05/17 11:08:16;;;;;;;5.32;2.42;;;;;;;-142.75;64.39;76156.94;4983325;28;20040;-80
2021/05/17 11:10:49;;;;;;;4.80;1.90;;;;;;;-142.75;63.82;76127.41;4980134;28;20438;-80
2021/05/17 11:13:22;;;;;;;6.55;2.15;;;;;;;-142.75;63.21;76113.63;4989083;28;20022;-79
2021/05/17 11:15:58;;;;;;;5.07;2.40;;;;;;;-142.75;63.20;76074.25;4984299;28;20023;-78
2021/05/17 11:18:26;;;;;;;10.80;3.45;;;;;;;-142.75;62.49;76062.47;4982644;28;20506;-79
2021/05/17 11:21:02;;;;;;;6.93;3.13;;;;;;;-142.75;61.91;76091.97;4978049;28;20031;-78
2021/05/17 11:23:37;;;;;;;9.13;3.35;;;;;;;-142.75;62.29;76149.06;4989035;28;20026;-77
2021/05/17 11:26:09;;;;;;;8.50;3.63;;;;;;;-142.75;63.97;76212.03;4981604;28;20061;-81
2021/05/17 11:28:35;;;;;;;5.00;2.40;;;;;;;-142.75;63.81;76251.41;4991929;28;20083;-81
2021/05/17 11:31:08;;;;;;;7.57;2.72;;;;;;;-142.75;64.24;76271.09;4966349;28;20087;-79
2021/05/17 11:33:52;;;;;;;6.68;3.30;;;;;;;-142.75;65.17;76288.81;4972505;28;20122;-80
2021/05/17 11:36:21;;;;;;;6.07;2.72;;;;;;;-142.75;65.85;76286.84;4982624;28;20504;-79
2021/05/17 11:39:08;;;;;;;4.15;1.67;;;;;;;-142.75;64.22;76271.09;4970984;28;20023;-80
2021/05/17 11:41:34;;;;;;;;;;;;;;;-142.75;64.52;76251.41;4954052;28;20054;-79